createdAt,value
2022-08-28T00:04:14.613Z,15.67
2022-08-28T00:09:18.949Z,15.56
2022-08-28T00:14:22.190Z,15.50
2022-08-28T00:19:25.580Z,15.39
2022-08-28T00:24:31.243Z,15.39
2022-08-28T00:29:34.050Z,15.31
2022-08-28T00:34:37.188Z,15.30
2022-08-28T00:39:41.399Z,15.36
2022-08-28T00:44:45.280Z,15.25
2022-08-28T00:49:52.792Z,15.34
2022-08-28T00:55:07.867Z,15.32
2022-08-28T01:00:14.017Z,15.29
2022-08-28T01:05:18.327Z,15.28
2022-08-28T01:10:25.816Z,15.24
2022-08-28T01:15:32.704Z,15.24
2022-08-28T01:20:37.841Z,15.23
2022-08-28T01:25:43.288Z,15.16
2022-08-28T01:30:48.869Z,15.27
2022-08-28T01:35:51.766Z,15.22
2022-08-28T01:40:57.800Z,15.11
2022-08-28T01:46:04.357Z,15.02
2022-08-28T01:51:07.278Z,15.09
2022-08-28T01:56:14.770Z,15.11
2022-08-28T02:01:21.083Z,14.97
2022-08-28T02:06:25.692Z,15.05
2022-08-28T02:11:30.651Z,15.11
2022-08-28T02:16:33.612Z,15.01
2022-08-28T02:21:36.503Z,14.99
2022-08-28T02:26:40.770Z,14.96
2022-08-28T02:31:43.586Z,14.93
2022-08-28T02:36:46.522Z,14.95
2022-08-28T02:41:50.712Z,14.80
2022-08-28T02:46:53.780Z,14.88
2022-08-28T02:51:57.647Z,14.83
2022-08-28T02:57:02.186Z,14.83
2022-08-28T03:02:07.208Z,14.95
2022-08-28T03:07:12.610Z,14.86
2022-08-28T03:12:17.061Z,14.90
2022-08-28T03:17:20.359Z,14.84
2022-08-28T03:22:43.855Z,14.88
2022-08-28T03:27:48.080Z,14.78
2022-08-28T03:32:51.388Z,14.78
2022-08-28T03:37:54.209Z,14.68
2022-08-28T03:42:58.557Z,14.63
2022-08-28T03:48:03.807Z,14.73
2022-08-28T03:53:07.258Z,14.64
2022-08-28T03:58:11.887Z,14.64
2022-08-28T04:03:22.186Z,14.54
2022-08-28T04:08:25.296Z,14.50
2022-08-28T04:13:30.403Z,14.56
2022-08-28T04:18:33.218Z,14.46
2022-08-28T04:23:36.600Z,14.41
2022-08-28T04:28:40.879Z,14.39
2022-08-28T04:33:43.756Z,14.42
2022-08-28T04:38:46.998Z,14.50
2022-08-28T04:43:52.775Z,14.39
2022-08-28T04:48:56.688Z,14.53
2022-08-28T04:54:00.117Z,14.58
2022-08-28T04:59:04.943Z,14.64
2022-08-28T05:04:07.998Z,14.73
2022-08-28T05:09:10.818Z,14.70
2022-08-28T05:14:16.510Z,14.71
2022-08-28T05:19:22.006Z,14.75
2022-08-28T05:24:25.336Z,14.89
2022-08-28T05:29:29.773Z,14.97
2022-08-28T05:34:32.756Z,14.99
2022-08-28T05:39:35.744Z,15.22
2022-08-28T05:44:40.009Z,15.50
2022-08-28T05:49:43.002Z,15.63
2022-08-28T05:54:45.868Z,15.75
2022-08-28T05:59:50.255Z,15.86
2022-08-28T06:04:53.714Z,16.13
2022-08-28T06:09:56.589Z,16.23
2022-08-28T06:15:00.912Z,16.75
2022-08-28T06:20:04.298Z,17.02
2022-08-28T06:25:09.312Z,17.60
2022-08-28T06:30:14.180Z,17.98
2022-08-28T06:35:17.304Z,18.32
2022-08-28T06:40:20.196Z,18.99
2022-08-28T06:45:24.570Z,20.75
2022-08-28T06:50:27.376Z,23.77
2022-08-28T06:55:30.181Z,26.50
2022-08-28T07:00:35.631Z,26.52
2022-08-28T07:05:38.537Z,27.76
2022-08-28T07:10:41.353Z,26.65
2022-08-28T07:15:45.930Z,25.48
2022-08-28T07:20:57.626Z,25.64
2022-08-28T07:26:03.508Z,28.61
2022-08-28T07:31:10.804Z,29.53
2022-08-28T07:36:16.077Z,28.90
2022-08-28T07:41:35.469Z,28.66
2022-08-28T07:46:41.003Z,29.06
2022-08-28T07:51:46.693Z,27.38
2022-08-28T07:56:49.916Z,24.77
2022-08-28T08:01:54.477Z,25.51
2022-08-28T08:06:58.280Z,24.63
2022-08-28T08:12:01.293Z,23.50
2022-08-28T08:17:07.364Z,22.44
2022-08-28T08:22:10.776Z,22.34
2022-08-28T08:27:13.633Z,21.91
2022-08-28T08:32:17.910Z,21.82
2022-08-28T08:37:20.710Z,21.67
2022-08-28T08:42:27.405Z,21.62
2022-08-28T08:47:39.339Z,21.30
2022-08-28T08:52:53.144Z,21.05
2022-08-28T08:58:06.076Z,21.01
2022-08-28T09:03:16.044Z,21.13
2022-08-28T09:08:27.600Z,21.89
2022-08-28T09:13:41.556Z,21.63
2022-08-28T09:18:48.429Z,20.82
2022-08-28T09:23:53.330Z,21.93
2022-08-28T09:29:05.194Z,22.50
2022-08-28T09:34:23.832Z,22.23
2022-08-28T09:39:29.173Z,22.66
2022-08-28T09:44:32.514Z,22.54
2022-08-28T09:49:37.006Z,22.30
2022-08-28T09:54:44.720Z,22.94
2022-08-28T09:59:47.403Z,22.27
2022-08-28T10:04:59.961Z,22.88
2022-08-28T10:10:22.148Z,22.77
2022-08-28T10:15:31.239Z,23.03
2022-08-28T10:20:47.912Z,22.60
2022-08-28T10:25:57.978Z,22.68
2022-08-28T10:31:08.243Z,23.24
2022-08-28T10:36:33.603Z,22.80
2022-08-28T10:41:44.266Z,21.71
2022-08-28T10:46:51.953Z,21.49
2022-08-28T10:52:02.310Z,21.66
2022-08-28T10:57:25.424Z,21.92
2022-08-28T11:02:31.032Z,21.74
2022-08-28T11:07:39.318Z,21.96
2022-08-28T11:12:44.318Z,22.29
2022-08-28T11:17:51.732Z,22.50
2022-08-28T11:23:00.576Z,21.91
2022-08-28T11:28:17.627Z,22.17
2022-08-28T11:33:39.945Z,21.88
2022-08-28T11:39:06.053Z,21.90
2022-08-28T11:44:28.222Z,22.26
2022-08-28T11:49:44.117Z,22.43
2022-08-28T11:54:59.992Z,22.50
2022-08-28T12:00:11.505Z,23.21
2022-08-28T12:05:45.901Z,22.70
2022-08-28T12:10:59.588Z,21.94
2022-08-28T12:16:07.552Z,21.83
2022-08-28T12:21:17.576Z,22.08
2022-08-28T12:26:26.166Z,22.35
2022-08-28T12:32:15.100Z,21.65
2022-08-28T12:37:27.320Z,21.51
2022-08-28T12:42:36.449Z,22.27
2022-08-28T12:47:44.562Z,22.33
2022-08-28T12:52:50.629Z,23.02
2022-08-28T12:57:55.511Z,22.33
2022-08-28T13:02:58.629Z,22.26
2022-08-28T13:08:05.315Z,22.79
2022-08-28T13:13:19.467Z,22.57
2022-08-28T13:18:46.305Z,22.03
2022-08-28T13:23:51.191Z,22.03
2022-08-28T13:28:55.942Z,22.62
2022-08-28T13:34:11.243Z,22.80
2022-08-28T13:39:16.307Z,22.92
2022-08-28T13:44:30.457Z,22.91
2022-08-28T13:49:34.115Z,22.91
2022-08-28T13:54:37.744Z,22.57
2022-08-28T13:59:45.823Z,22.64
2022-08-28T14:04:48.658Z,22.97
2022-08-28T14:09:55.981Z,22.60
2022-08-28T14:15:00.401Z,22.70
2022-08-28T14:20:03.745Z,22.72
2022-08-28T14:25:09.386Z,21.93
2022-08-28T14:30:14.602Z,21.82
2022-08-28T14:35:17.459Z,22.42
2022-08-28T14:40:20.681Z,22.51
2022-08-28T14:45:24.899Z,22.27
2022-08-28T14:50:28.005Z,22.77
2022-08-28T14:55:30.963Z,22.78
2022-08-28T15:00:40.539Z,22.85
2022-08-28T15:05:43.857Z,22.68
2022-08-28T15:10:48.520Z,22.25
2022-08-28T15:16:02.350Z,22.28
2022-08-28T15:21:07.610Z,21.81
2022-08-28T15:26:15.152Z,21.52
2022-08-28T15:31:19.585Z,21.39
2022-08-28T15:36:23.275Z,21.68
2022-08-28T15:41:26.332Z,21.63
2022-08-28T15:46:33.650Z,21.47
2022-08-28T15:51:36.944Z,21.31
2022-08-28T15:56:41.561Z,21.30
2022-08-28T16:01:45.914Z,21.11
2022-08-28T16:06:48.913Z,21.08
2022-08-28T16:11:59.636Z,21.22
2022-08-28T16:17:05.771Z,21.22
2022-08-28T16:22:15.925Z,20.99
2022-08-28T16:27:19.035Z,21.01
2022-08-28T16:32:23.853Z,20.80
2022-08-28T16:37:37.731Z,20.64
2022-08-28T16:42:51.434Z,20.49
2022-08-28T16:47:56.499Z,20.67
2022-08-28T16:53:03.532Z,20.27
2022-08-28T16:58:09.313Z,19.90
2022-08-28T17:03:14.140Z,20.13
2022-08-28T17:08:18.582Z,19.96
2022-08-28T17:13:21.508Z,19.91
2022-08-28T17:18:25.813Z,19.90
2022-08-28T17:23:28.661Z,19.84
2022-08-28T17:28:32.167Z,19.78
2022-08-28T17:33:37.064Z,19.64
2022-08-28T17:38:40.781Z,19.65
2022-08-28T17:43:44.267Z,19.36
2022-08-28T17:48:56.107Z,19.39
2022-08-28T17:53:59.406Z,19.25
2022-08-28T17:59:04.284Z,19.29
2022-08-28T18:04:08.948Z,19.24
2022-08-28T18:09:12.002Z,19.30
2022-08-28T18:14:14.781Z,19.25
2022-08-28T18:19:19.029Z,19.20
2022-08-28T18:24:22.078Z,19.16
2022-08-28T18:29:25.058Z,18.85
2022-08-28T18:34:30.014Z,18.90
2022-08-28T18:39:35.738Z,18.95
2022-08-28T18:44:38.634Z,18.75
2022-08-28T18:49:43.194Z,18.69
2022-08-28T18:54:46.124Z,18.87
2022-08-28T18:59:50.588Z,18.59
2022-08-28T19:04:54.912Z,18.60
2022-08-28T19:10:01.046Z,18.72
2022-08-28T19:15:04.385Z,18.43
2022-08-28T19:20:12.747Z,18.48
2022-08-28T19:25:27.408Z,18.29
2022-08-28T19:30:34.469Z,18.20
2022-08-28T19:35:38.987Z,17.98
2022-08-28T19:40:42.987Z,18.01
2022-08-28T19:45:46.800Z,17.98
2022-08-28T19:51:01.907Z,17.95
2022-08-28T19:56:06.137Z,17.70
2022-08-28T20:01:09.495Z,17.83
2022-08-28T20:06:13.860Z,17.66
2022-08-28T20:11:19.572Z,17.69
2022-08-28T20:16:22.599Z,17.81
2022-08-28T20:21:37.238Z,17.60
2022-08-28T20:26:41.593Z,17.67
2022-08-28T20:31:47.926Z,17.63
2022-08-28T20:36:52.587Z,17.83
2022-08-28T20:41:55.603Z,17.68
2022-08-28T20:46:58.761Z,17.60
2022-08-28T20:52:04.652Z,17.53
2022-08-28T20:57:10.008Z,17.60
2022-08-28T21:02:15.058Z,17.71
2022-08-28T21:07:21.793Z,17.78
2022-08-28T21:12:25.199Z,17.65
2022-08-28T21:17:30.157Z,17.65
2022-08-28T21:22:35.233Z,17.68
2022-08-28T21:27:39.283Z,17.67
2022-08-28T21:32:42.479Z,17.66
2022-08-28T21:37:49.080Z,17.64
2022-08-28T21:42:51.952Z,17.67
2022-08-28T21:47:54.861Z,17.44
2022-08-28T21:52:59.405Z,17.55
2022-08-28T21:58:02.251Z,17.49
2022-08-28T22:03:05.411Z,17.61
2022-08-28T22:08:09.612Z,17.79
2022-08-28T22:13:14.371Z,17.81
2022-08-28T22:18:17.623Z,17.86
2022-08-28T22:23:21.921Z,17.74
2022-08-28T22:28:24.799Z,17.62
2022-08-28T22:33:27.570Z,17.74
2022-08-28T22:38:32.168Z,17.87
2022-08-28T22:43:36.162Z,17.72
2022-08-28T22:48:39.280Z,17.70
2022-08-28T22:53:44.268Z,17.77
2022-08-28T22:58:47.119Z,17.86
2022-08-28T23:03:51.159Z,17.73
2022-08-28T23:08:55.402Z,17.84
2022-08-28T23:13:58.266Z,17.95
2022-08-28T23:19:08.933Z,17.86
2022-08-28T23:24:15.568Z,18.00
2022-08-28T23:29:18.473Z,17.96
2022-08-28T23:34:22.641Z,18.00
2022-08-28T23:39:27.813Z,17.93
2022-08-28T23:44:30.656Z,17.99
2022-08-28T23:49:33.964Z,17.79
2022-08-28T23:54:45.802Z,17.93
2022-08-28T23:59:48.949Z,17.93
